createdAt,value
2019-06-01T00:00:10.852Z,99.90
2019-06-01T00:03:12.044Z,99.90
2019-06-01T00:06:19.738Z,99.90
2019-06-01T00:09:27.161Z,99.90
2019-06-01T00:12:34.711Z,99.90
2019-06-01T00:15:42.143Z,99.90
2019-06-01T00:18:50.371Z,99.90
2019-06-01T00:21:57.933Z,99.90
2019-06-01T00:25:06.187Z,99.90
2019-06-01T00:28:13.664Z,99.90
2019-06-01T00:31:21.157Z,99.90
2019-06-01T00:34:28.649Z,99.90
2019-06-01T00:37:36.229Z,99.90
2019-06-01T00:40:43.824Z,99.90
2019-06-01T00:43:52.402Z,99.90
2019-06-01T00:47:00.196Z,99.90
2019-06-01T00:50:08.266Z,99.90
2019-06-01T00:53:15.665Z,99.90
2019-06-01T00:56:23.170Z,99.90
2019-06-01T00:59:31.767Z,99.90
2019-06-01T01:02:39.191Z,99.90
2019-06-01T01:05:47.033Z,99.90
2019-06-01T01:08:55.201Z,99.90
2019-06-01T01:12:02.822Z,99.90
2019-06-01T01:15:10.493Z,99.90
2019-06-01T01:18:18.182Z,99.90
2019-06-01T01:21:25.741Z,99.90
2019-06-01T01:24:33.182Z,99.90
2019-06-01T01:27:40.615Z,99.90
2019-06-01T01:31:02.682Z,99.90
2019-06-01T01:33:57.622Z,99.90
2019-06-01T01:37:06.206Z,99.90
2019-06-01T01:40:14.221Z,99.90
2019-06-01T01:43:21.731Z,99.90
2019-06-01T01:46:29.247Z,99.90
2019-06-01T01:49:36.738Z,99.90
2019-06-01T01:52:44.271Z,99.90
2019-06-01T01:55:52.873Z,99.90
2019-06-01T01:59:00.585Z,99.90
2019-06-01T02:02:07.999Z,99.90
2019-06-01T02:05:15.624Z,99.90
2019-06-01T02:08:25.103Z,99.90
2019-06-01T02:11:33.869Z,99.90
2019-06-01T02:14:41.769Z,99.90
2019-06-01T02:17:49.277Z,99.90
2019-06-01T02:20:56.800Z,99.90
2019-06-01T02:24:04.561Z,99.90
2019-06-01T02:27:11.963Z,99.90
2019-06-01T02:30:19.485Z,99.90
2019-06-01T02:33:26.940Z,99.90
2019-06-01T02:36:34.614Z,99.90
2019-06-01T02:39:42.248Z,99.90
2019-06-01T02:42:50.303Z,99.90
2019-06-01T02:45:58.394Z,99.90
2019-06-01T02:49:06.527Z,99.90
2019-06-01T02:52:14.106Z,99.90
2019-06-01T02:55:22.694Z,99.90
2019-06-01T02:58:30.128Z,99.90
2019-06-01T03:01:38.549Z,99.90
2019-06-01T03:04:46.075Z,99.90
2019-06-01T03:07:54.019Z,99.90
2019-06-01T03:11:03.840Z,99.90
2019-06-01T03:14:13.392Z,99.90
2019-06-01T03:17:24.100Z,99.90
2019-06-01T03:20:32.929Z,99.90
2019-06-01T03:23:43.369Z,99.90
2019-06-01T03:26:50.772Z,99.90
2019-06-01T03:30:00.233Z,99.90
2019-06-01T03:33:10.344Z,99.90
2019-06-01T03:36:18.518Z,99.90
2019-06-01T03:39:25.990Z,99.90
2019-06-01T03:42:33.463Z,99.90
2019-06-01T03:45:40.981Z,99.90
2019-06-01T03:48:48.451Z,99.90
2019-06-01T03:51:55.952Z,99.90
2019-06-01T03:55:03.701Z,99.90
2019-06-01T03:58:11.275Z,99.90
2019-06-01T04:01:19.803Z,99.90
2019-06-01T04:04:27.312Z,99.90
2019-06-01T04:07:34.718Z,99.90
2019-06-01T04:10:42.138Z,99.90
2019-06-01T04:13:49.647Z,99.90
2019-06-01T04:16:57.049Z,99.90
2019-06-01T04:20:06.136Z,99.90
2019-06-01T04:23:13.622Z,99.90
2019-06-01T04:26:21.086Z,99.90
2019-06-01T04:29:28.518Z,99.90
2019-06-01T04:32:48.909Z,99.90
2019-06-01T04:35:45.060Z,99.90
2019-06-01T04:38:54.088Z,99.90
2019-06-01T04:42:01.824Z,99.90
2019-06-01T04:45:10.796Z,99.90
2019-06-01T04:48:18.422Z,99.90
2019-06-01T04:51:25.828Z,99.90
2019-06-01T04:54:33.315Z,99.90
2019-06-01T04:57:43.570Z,99.90
2019-06-01T05:00:50.994Z,99.90
2019-06-01T05:03:58.432Z,99.90
2019-06-01T05:07:07.138Z,99.90
2019-06-01T05:10:16.048Z,99.90
2019-06-01T05:13:23.709Z,99.90
2019-06-01T05:16:31.589Z,99.90
2019-06-01T05:19:39.293Z,99.90
2019-06-01T05:22:46.841Z,99.90
2019-06-01T05:25:54.475Z,99.90
2019-06-01T05:29:01.989Z,99.90
2019-06-01T05:32:10.440Z,99.90
2019-06-01T05:35:19.280Z,99.90
2019-06-01T05:38:26.729Z,99.90
2019-06-01T05:41:34.129Z,99.90
2019-06-01T05:44:41.565Z,99.90
2019-06-01T05:47:50.024Z,99.80
2019-06-01T05:50:58.406Z,99.90
2019-06-01T05:54:06.075Z,99.20
2019-06-01T05:57:14.621Z,98.60
2019-06-01T06:00:34.301Z,98.10
2019-06-01T06:03:41.752Z,98.00
2019-06-01T06:06:49.561Z,96.90
2019-06-01T06:09:57.307Z,96.90
2019-06-01T06:13:04.934Z,97.10
2019-06-01T06:16:13.713Z,97.10
2019-06-01T06:19:23.762Z,96.60
2019-06-01T06:22:31.506Z,96.80
2019-06-01T06:25:41.305Z,97.40
2019-06-01T06:28:47.951Z,96.50
2019-06-01T06:31:55.411Z,96.20
2019-06-01T06:35:03.318Z,95.40
2019-06-01T06:38:10.998Z,95.90
2019-06-01T06:41:20.029Z,95.60
2019-06-01T06:44:27.943Z,95.90
2019-06-01T06:47:35.622Z,96.20
2019-06-01T06:50:43.338Z,95.50
2019-06-01T06:53:51.656Z,96.40
2019-06-01T06:56:59.881Z,96.40
2019-06-01T07:00:07.687Z,95.80
2019-06-01T07:03:15.468Z,96.20
2019-06-01T07:06:23.642Z,95.80
2019-06-01T07:09:31.494Z,95.90
2019-06-01T07:12:38.935Z,95.80
2019-06-01T07:15:46.458Z,95.40
2019-06-01T07:18:54.440Z,95.00
2019-06-01T07:22:02.196Z,94.10
2019-06-01T07:25:10.411Z,93.30
2019-06-01T07:28:17.907Z,92.80
2019-06-01T07:31:26.277Z,94.00
2019-06-01T07:34:41.584Z,95.00
2019-06-01T07:37:43.380Z,95.30
2019-06-01T07:40:51.214Z,95.30
2019-06-01T07:43:58.996Z,95.80
2019-06-01T07:47:06.870Z,95.40
2019-06-01T07:50:14.487Z,95.50
2019-06-01T07:53:24.012Z,95.30
2019-06-01T07:56:32.848Z,94.60
2019-06-01T07:59:40.541Z,94.20
2019-06-01T08:02:48.186Z,94.20
2019-06-01T08:05:55.679Z,93.60
2019-06-01T08:09:03.175Z,93.60
2019-06-01T08:12:10.969Z,93.60
2019-06-01T08:15:18.924Z,94.60
2019-06-01T08:18:28.240Z,96.40
2019-06-01T08:21:36.297Z,96.40
2019-06-01T08:24:43.878Z,96.40
2019-06-01T08:27:51.679Z,96.80
2019-06-01T08:30:59.440Z,97.90
2019-06-01T08:34:07.636Z,98.30
2019-06-01T08:37:15.589Z,97.20
2019-06-01T08:40:23.414Z,96.40
2019-06-01T08:43:31.830Z,96.40
2019-06-01T08:46:39.681Z,96.40
2019-06-01T08:49:47.548Z,94.40
2019-06-01T08:52:55.333Z,93.40
2019-06-01T08:56:02.967Z,94.40
2019-06-01T08:59:12.204Z,93.80
2019-06-01T09:02:19.899Z,95.10
2019-06-01T09:05:28.924Z,95.60
2019-06-01T09:08:36.942Z,96.60
2019-06-01T09:11:45.864Z,97.70
2019-06-01T09:14:53.679Z,97.50
2019-06-01T09:18:01.291Z,95.30
2019-06-01T09:21:08.860Z,96.00
2019-06-01T09:24:16.607Z,96.60
2019-06-01T09:27:25.565Z,96.90
2019-06-01T09:30:34.051Z,97.40
2019-06-01T09:33:44.226Z,98.70
2019-06-01T09:36:55.356Z,99.00
2019-06-01T09:40:01.215Z,99.50
2019-06-01T09:43:10.095Z,98.70
2019-06-01T09:46:17.700Z,99.00
2019-06-01T09:49:27.091Z,98.80
2019-06-01T09:52:35.563Z,99.80
2019-06-01T09:55:43.656Z,99.90
2019-06-01T09:58:51.309Z,99.90
2019-06-01T10:01:58.927Z,99.90
2019-06-01T10:05:07.460Z,99.90
2019-06-01T10:08:15.188Z,99.90
2019-06-01T10:11:22.657Z,99.90
2019-06-01T10:14:30.429Z,99.90
2019-06-01T10:17:39.043Z,99.90
2019-06-01T10:20:47.026Z,99.90
2019-06-01T10:23:54.747Z,99.90
2019-06-01T10:27:02.489Z,99.90
2019-06-01T10:30:11.749Z,99.90
2019-06-01T10:33:19.414Z,99.90
2019-06-01T10:36:27.097Z,99.40
2019-06-01T10:39:35.265Z,98.50
2019-06-01T10:42:43.093Z,96.90
2019-06-01T10:45:51.293Z,96.80
2019-06-01T10:48:59.087Z,96.10
2019-06-01T10:52:06.980Z,94.90
2019-06-01T10:55:14.919Z,93.80
2019-06-01T10:58:22.512Z,91.90
2019-06-01T11:01:32.412Z,93.00
2019-06-01T11:04:39.170Z,92.90
2019-06-01T11:07:46.637Z,93.80
2019-06-01T11:10:54.158Z,94.70
2019-06-01T11:14:01.885Z,95.20
2019-06-01T11:17:10.522Z,96.20
2019-06-01T11:20:18.138Z,96.90
2019-06-01T11:23:26.742Z,97.80
2019-06-01T11:26:35.516Z,98.40
2019-06-01T11:29:51.283Z,99.30
2019-06-01T11:32:52.523Z,99.90
2019-06-01T11:36:00.368Z,99.90
2019-06-01T11:39:08.726Z,99.90
2019-06-01T11:42:19.620Z,99.90
2019-06-01T11:45:25.294Z,99.90
2019-06-01T11:48:32.824Z,99.90
2019-06-01T11:51:41.498Z,99.90
2019-06-01T11:54:49.299Z,99.90
2019-06-01T11:57:56.853Z,99.90
2019-06-01T12:01:04.482Z,99.90
2019-06-01T12:04:13.042Z,99.90
2019-06-01T12:07:20.772Z,99.90
2019-06-01T12:10:28.303Z,99.90
2019-06-01T12:13:36.061Z,99.90
2019-06-01T12:16:44.803Z,99.90
2019-06-01T12:19:52.421Z,99.90
2019-06-01T12:22:59.884Z,99.90
2019-06-01T12:26:07.316Z,99.90
2019-06-01T12:29:14.825Z,99.90
2019-06-01T12:32:22.360Z,99.90
2019-06-01T12:35:29.828Z,99.90
2019-06-01T12:38:55.779Z,99.90
2019-06-01T12:42:03.243Z,99.90
2019-06-01T12:45:17.497Z,99.90
2019-06-01T12:48:24.977Z,99.90
2019-06-01T12:51:32.534Z,99.90
2019-06-01T12:54:40.441Z,99.90
2019-06-01T12:57:49.282Z,99.90
2019-06-01T13:00:57.055Z,99.90
2019-06-01T13:04:04.788Z,99.90
2019-06-01T13:07:14.143Z,99.90
2019-06-01T13:10:21.822Z,99.90
2019-06-01T13:13:29.365Z,99.90
2019-06-01T13:16:36.908Z,99.90
2019-06-01T13:19:45.282Z,99.90
2019-06-01T13:22:53.128Z,99.90
2019-06-01T13:26:02.471Z,99.90
2019-06-01T13:29:10.142Z,99.90
2019-06-01T13:32:17.671Z,99.90
2019-06-01T13:35:25.234Z,99.90
2019-06-01T13:38:32.856Z,99.90
2019-06-01T13:41:40.488Z,99.90
2019-06-01T13:44:49.518Z,99.90
2019-06-01T13:47:57.287Z,99.90
2019-06-01T13:51:04.738Z,99.90
2019-06-01T13:54:12.792Z,99.90
2019-06-01T13:57:20.322Z,99.90
2019-06-01T14:00:30.653Z,99.90
2019-06-01T14:03:36.938Z,99.90
2019-06-01T14:06:45.107Z,99.90
2019-06-01T14:09:53.755Z,99.90
2019-06-01T14:13:04.993Z,99.90
2019-06-01T14:16:10.540Z,99.90
2019-06-01T14:19:18.167Z,99.90
2019-06-01T14:22:25.695Z,99.90
2019-06-01T14:25:33.242Z,99.90
2019-06-01T14:28:40.845Z,99.90
2019-06-01T14:31:48.533Z,99.90
2019-06-01T14:34:57.009Z,99.90
2019-06-01T14:38:05.029Z,99.90
2019-06-01T14:41:12.682Z,99.90
2019-06-01T14:44:20.295Z,99.90
2019-06-01T14:47:27.910Z,99.90
2019-06-01T14:50:35.511Z,99.90
2019-06-01T14:53:43.030Z,99.90
2019-06-01T14:56:51.708Z,99.90
2019-06-01T14:59:59.690Z,99.90
2019-06-01T15:03:07.169Z,99.90
2019-06-01T15:06:14.661Z,99.90
2019-06-01T15:09:22.210Z,99.90
2019-06-01T15:12:29.770Z,99.90
2019-06-01T15:15:37.260Z,99.90
2019-06-01T15:18:44.824Z,99.90
2019-06-01T15:21:52.451Z,99.90
2019-06-01T15:25:00.009Z,99.90
2019-06-01T15:28:07.593Z,99.90
2019-06-01T15:31:15.090Z,99.90
2019-06-01T15:34:24.286Z,99.90
2019-06-01T15:37:34.260Z,99.90
2019-06-01T15:40:42.319Z,99.90
2019-06-01T15:43:50.910Z,99.90
2019-06-01T15:46:59.729Z,99.90
2019-06-01T15:50:08.970Z,99.90
2019-06-01T15:53:17.339Z,99.90
2019-06-01T15:56:25.614Z,99.90
2019-06-01T15:59:33.229Z,99.90
2019-06-01T16:02:41.439Z,99.90
2019-06-01T16:05:49.010Z,99.90
2019-06-01T16:08:57.240Z,99.90
2019-06-01T16:12:05.164Z,99.90
2019-06-01T16:15:14.228Z,99.90
2019-06-01T16:18:21.825Z,99.90
2019-06-01T16:21:29.570Z,99.90
2019-06-01T16:24:37.128Z,99.90
2019-06-01T16:27:44.636Z,99.90
2019-06-01T16:30:52.225Z,99.90
2019-06-01T16:34:00.647Z,99.90
2019-06-01T16:37:08.615Z,99.90
2019-06-01T16:40:16.564Z,99.90
2019-06-01T16:43:24.157Z,99.90
2019-06-01T16:46:31.719Z,99.90
2019-06-01T16:49:39.183Z,99.90
2019-06-01T16:52:46.611Z,99.90
2019-06-01T16:55:55.754Z,99.90
2019-06-01T16:59:04.514Z,99.90
2019-06-01T17:02:12.151Z,99.90
2019-06-01T17:05:19.813Z,99.90
2019-06-01T17:08:27.299Z,99.90
2019-06-01T17:11:34.780Z,99.90
2019-06-01T17:14:42.210Z,99.90
2019-06-01T17:17:49.952Z,99.90
2019-06-01T17:20:57.432Z,99.90
2019-06-01T17:24:06.067Z,99.90
2019-06-01T17:27:13.814Z,99.90
2019-06-01T17:30:21.377Z,99.90
2019-06-01T17:33:28.950Z,99.90
2019-06-01T17:36:36.493Z,99.90
2019-06-01T17:39:44.031Z,99.90
2019-06-01T17:42:51.806Z,99.90
2019-06-01T17:46:00.739Z,99.90
2019-06-01T17:49:10.001Z,99.90
2019-06-01T17:52:17.587Z,99.90
2019-06-01T17:55:34.014Z,99.90
2019-06-01T17:58:41.591Z,99.90
2019-06-01T18:01:49.143Z,99.90
2019-06-01T18:04:57.799Z,99.90
2019-06-01T18:08:06.152Z,99.90
2019-06-01T18:11:13.953Z,99.90
2019-06-01T18:14:22.439Z,99.90
2019-06-01T18:17:29.904Z,99.90
2019-06-01T18:20:38.918Z,99.90
2019-06-01T18:23:49.096Z,99.90
2019-06-01T18:26:55.597Z,99.90
2019-06-01T18:30:04.723Z,99.90
2019-06-01T18:33:13.792Z,99.90
2019-06-01T18:36:21.303Z,99.90
2019-06-01T18:39:28.798Z,99.90
2019-06-01T18:42:37.051Z,99.90
2019-06-01T18:45:45.877Z,99.90
2019-06-01T18:48:53.497Z,99.90
2019-06-01T18:52:01.352Z,99.90
2019-06-01T18:55:10.457Z,99.90
2019-06-01T18:58:24.637Z,99.90
2019-06-01T19:01:32.141Z,99.90
2019-06-01T19:04:39.629Z,99.90
2019-06-01T19:07:47.153Z,99.90
2019-06-01T19:10:54.668Z,99.90
2019-06-01T19:14:02.357Z,99.90
2019-06-01T19:17:10.345Z,99.90
2019-06-01T19:20:18.201Z,99.90
2019-06-01T19:23:25.762Z,99.90
2019-06-01T19:26:33.223Z,99.90
2019-06-01T19:29:40.688Z,99.90
2019-06-01T19:32:48.318Z,99.90
2019-06-01T19:35:56.818Z,99.90
2019-06-01T19:39:07.041Z,99.90
2019-06-01T19:42:15.508Z,99.90
2019-06-01T19:45:28.876Z,99.90
2019-06-01T19:48:32.410Z,99.90
2019-06-01T19:51:40.155Z,99.90
2019-06-01T19:54:47.715Z,99.90
2019-06-01T19:57:55.447Z,99.90
2019-06-01T20:01:03.107Z,99.90
2019-06-01T20:04:10.668Z,99.90
2019-06-01T20:07:19.287Z,99.90
2019-06-01T20:10:27.106Z,99.90
2019-06-01T20:13:34.830Z,99.90
2019-06-01T20:16:42.397Z,99.90
2019-06-01T20:19:50.231Z,99.90
2019-06-01T20:22:57.791Z,99.90
2019-06-01T20:26:05.703Z,99.90
2019-06-01T20:29:14.011Z,99.90
2019-06-01T20:32:22.285Z,99.90
2019-06-01T20:35:30.231Z,99.90
2019-06-01T20:38:38.048Z,99.90
2019-06-01T20:41:45.591Z,99.90
2019-06-01T20:44:53.344Z,99.90
2019-06-01T20:48:00.803Z,99.90
2019-06-01T20:51:08.541Z,99.90
2019-06-01T20:54:16.904Z,99.90
2019-06-01T20:57:26.236Z,99.90
2019-06-01T21:00:33.714Z,99.90
2019-06-01T21:03:41.827Z,99.90
2019-06-01T21:06:49.433Z,99.90
2019-06-01T21:09:57.057Z,99.90
2019-06-01T21:13:07.793Z,99.90
2019-06-01T21:16:16.082Z,99.90
2019-06-01T21:19:24.495Z,99.90
2019-06-01T21:22:32.326Z,99.90
2019-06-01T21:25:40.457Z,99.90
2019-06-01T21:28:48.165Z,99.90
2019-06-01T21:31:55.829Z,99.90
2019-06-01T21:35:03.415Z,99.90
2019-06-01T21:38:11.477Z,99.90
2019-06-01T21:41:19.462Z,99.90
2019-06-01T21:44:27.135Z,99.90
2019-06-01T21:47:34.979Z,99.90
2019-06-01T21:50:42.738Z,99.90
2019-06-01T21:53:50.609Z,99.90
2019-06-01T21:56:58.209Z,99.90
2019-06-01T22:00:09.287Z,99.90
2019-06-01T22:03:19.066Z,99.90
2019-06-01T22:06:27.727Z,99.90
2019-06-01T22:09:35.455Z,99.90
2019-06-01T22:12:43.226Z,99.90
2019-06-01T22:15:51.239Z,99.90
2019-06-01T22:18:59.150Z,99.90
2019-06-01T22:22:06.779Z,99.90
2019-06-01T22:25:14.479Z,99.90
2019-06-01T22:28:22.573Z,99.90
2019-06-01T22:31:30.254Z,99.90
2019-06-01T22:34:38.129Z,99.90
2019-06-01T22:37:45.852Z,99.90
2019-06-01T22:40:53.582Z,99.90
2019-06-01T22:44:01.387Z,99.90
2019-06-01T22:47:09.159Z,99.90
2019-06-01T22:50:16.832Z,99.90
2019-06-01T22:53:24.379Z,99.90
2019-06-01T22:56:32.096Z,99.90
2019-06-01T22:59:39.757Z,99.90
2019-06-01T23:02:48.101Z,99.90
2019-06-01T23:05:55.863Z,99.90
2019-06-01T23:09:03.687Z,99.90
2019-06-01T23:12:11.617Z,99.90
2019-06-01T23:15:19.309Z,99.90
2019-06-01T23:18:27.970Z,99.90
2019-06-01T23:21:35.845Z,99.90
2019-06-01T23:24:43.948Z,99.90
2019-06-01T23:27:51.608Z,99.90
2019-06-01T23:30:59.137Z,99.90
2019-06-01T23:34:06.872Z,99.90
2019-06-01T23:37:14.867Z,99.90
2019-06-01T23:40:22.593Z,99.90
2019-06-01T23:43:30.891Z,99.90
2019-06-01T23:46:38.747Z,99.90
2019-06-01T23:49:48.342Z,99.90
2019-06-01T23:53:10.410Z,99.90
2019-06-01T23:56:05.462Z,99.90
2019-06-01T23:59:13.041Z,99.90
